sensor_id;sensor_type;location;lat;lon;timestamp;P1;durP1;ratioP1;P2;durP2;ratioP2
9445;SDS011;4761;49.490;10.908;2023-07-20T00:02:15;1.52;;;1.40;;
9445;SDS011;4761;49.490;10.908;2023-07-20T00:04:41;2.00;;;1.63;;
9445;SDS011;4761;49.490;10.908;2023-07-20T00:07:06;1.85;;;1.73;;
9445;SDS011;4761;49.490;10.908;2023-07-20T00:09:32;2.45;;;1.77;;
9445;SDS011;4761;49.490;10.908;2023-07-20T00:11:57;2.22;;;1.80;;
9445;SDS011;4761;49.490;10.908;2023-07-20T00:14:25;1.95;;;1.80;;
9445;SDS011;4761;49.490;10.908;2023-07-20T00:16:51;1.70;;;1.60;;
9445;SDS011;4761;49.490;10.908;2023-07-20T00:19:24;1.98;;;1.60;;
9445;SDS011;4761;49.490;10.908;2023-07-20T00:21:51;1.92;;;1.67;;
9445;SDS011;4761;49.490;10.908;2023-07-20T00:24:17;2.08;;;1.60;;
9445;SDS011;4761;49.490;10.908;2023-07-20T00:26:43;1.73;;;1.63;;
9445;SDS011;4761;49.490;10.908;2023-07-20T00:29:09;2.00;;;1.80;;
9445;SDS011;4761;49.490;10.908;2023-07-20T00:31:34;3.97;;;1.60;;
9445;SDS011;4761;49.490;10.908;2023-07-20T00:34:02;1.85;;;1.70;;
9445;SDS011;4761;49.490;10.908;2023-07-20T00:36:30;1.92;;;1.73;;
9445;SDS011;4761;49.490;10.908;2023-07-20T00:38:56;1.80;;;1.70;;
9445;SDS011;4761;49.490;10.908;2023-07-20T00:41:22;1.85;;;1.67;;
9445;SDS011;4761;49.490;10.908;2023-07-20T00:43:48;2.60;;;1.70;;
9445;SDS011;4761;49.490;10.908;2023-07-20T00:46:15;1.95;;;1.65;;
9445;SDS011;4761;49.490;10.908;2023-07-20T00:48:41;1.50;;;1.40;;
9445;SDS011;4761;49.490;10.908;2023-07-20T00:51:07;2.22;;;1.70;;
9445;SDS011;4761;49.490;10.908;2023-07-20T00:53:32;2.85;;;1.95;;
9445;SDS011;4761;49.490;10.908;2023-07-20T00:55:58;1.73;;;1.63;;
9445;SDS011;4761;49.490;10.908;2023-07-20T00:58:24;2.08;;;1.88;;
9445;SDS011;4761;49.490;10.908;2023-07-20T01:00:50;1.83;;;1.42;;
9445;SDS011;4761;49.490;10.908;2023-07-20T01:03:15;1.63;;;1.52;;
9445;SDS011;4761;49.490;10.908;2023-07-20T01:05:42;2.03;;;1.75;;
9445;SDS011;4761;49.490;10.908;2023-07-20T01:08:24;1.83;;;1.60;;
9445;SDS011;4761;49.490;10.908;2023-07-20T01:11:22;1.60;;;1.50;;
9445;SDS011;4761;49.490;10.908;2023-07-20T01:13:51;1.73;;;1.63;;
9445;SDS011;4761;49.490;10.908;2023-07-20T01:16:17;2.17;;;1.65;;
9445;SDS011;4761;49.490;10.908;2023-07-20T01:18:42;2.88;;;1.52;;
9445;SDS011;4761;49.490;10.908;2023-07-20T01:21:09;1.80;;;1.70;;
9445;SDS011;4761;49.490;10.908;2023-07-20T01:32:20;2.20;;;1.50;;
9445;SDS011;4761;49.490;10.908;2023-07-20T01:34:49;1.95;;;1.75;;
9445;SDS011;4761;49.490;10.908;2023-07-20T01:37:18;1.88;;;1.45;;
9445;SDS011;4761;49.490;10.908;2023-07-20T01:39:45;1.83;;;1.73;;
9445;SDS011;4761;49.490;10.908;2023-07-20T01:42:11;2.03;;;1.67;;
9445;SDS011;4761;49.490;10.908;2023-07-20T01:44:38;2.72;;;1.67;;
9445;SDS011;4761;49.490;10.908;2023-07-20T01:47:03;2.80;;;1.83;;
9445;SDS011;4761;49.490;10.908;2023-07-20T01:49:29;1.88;;;1.60;;
9445;SDS011;4761;49.490;10.908;2023-07-20T01:51:55;1.95;;;1.77;;
9445;SDS011;4761;49.490;10.908;2023-07-20T01:54:20;1.80;;;1.70;;
9445;SDS011;4761;49.490;10.908;2023-07-20T01:56:46;1.85;;;1.60;;
9445;SDS011;4761;49.490;10.908;2023-07-20T01:59:11;2.67;;;1.80;;
9445;SDS011;4761;49.490;10.908;2023-07-20T02:01:37;2.20;;;1.63;;
9445;SDS011;4761;49.490;10.908;2023-07-20T02:04:02;1.75;;;1.50;;
9445;SDS011;4761;49.490;10.908;2023-07-20T02:06:28;2.13;;;1.92;;
9445;SDS011;4761;49.490;10.908;2023-07-20T02:08:53;1.77;;;1.67;;
9445;SDS011;4761;49.490;10.908;2023-07-20T02:11:19;1.70;;;1.60;;
9445;SDS011;4761;49.490;10.908;2023-07-20T02:13:44;1.52;;;1.40;;
9445;SDS011;4761;49.490;10.908;2023-07-20T02:16:10;1.45;;;1.35;;
9445;SDS011;4761;49.490;10.908;2023-07-20T02:18:36;2.00;;;1.58;;
9445;SDS011;4761;49.490;10.908;2023-07-20T02:21:02;1.95;;;1.60;;
9445;SDS011;4761;49.490;10.908;2023-07-20T02:23:27;1.83;;;1.60;;
9445;SDS011;4761;49.490;10.908;2023-07-20T02:25:53;1.67;;;1.58;;
9445;SDS011;4761;49.490;10.908;2023-07-20T02:28:19;1.50;;;1.40;;
9445;SDS011;4761;49.490;10.908;2023-07-20T02:30:44;1.67;;;1.58;;
9445;SDS011;4761;49.490;10.908;2023-07-20T02:33:10;2.03;;;1.60;;
9445;SDS011;4761;49.490;10.908;2023-07-20T02:35:35;1.75;;;1.50;;
9445;SDS011;4761;49.490;10.908;2023-07-20T02:38:01;1.50;;;1.40;;
9445;SDS011;4761;49.490;10.908;2023-07-20T02:40:26;2.03;;;1.77;;
9445;SDS011;4761;49.490;10.908;2023-07-20T02:42:52;1.42;;;1.33;;
9445;SDS011;4761;49.490;10.908;2023-07-20T02:45:18;2.03;;;1.67;;
9445;SDS011;4761;49.490;10.908;2023-07-20T02:47:44;1.50;;;1.40;;
9445;SDS011;4761;49.490;10.908;2023-07-20T02:50:09;1.63;;;1.52;;
9445;SDS011;4761;49.490;10.908;2023-07-20T02:52:38;1.70;;;1.60;;
9445;SDS011;4761;49.490;10.908;2023-07-20T02:55:04;1.95;;;1.40;;
9445;SDS011;4761;49.490;10.908;2023-07-20T02:57:29;1.40;;;1.30;;
9445;SDS011;4761;49.490;10.908;2023-07-20T02:59:55;1.40;;;1.30;;
9445;SDS011;4761;49.490;10.908;2023-07-20T03:02:20;2.08;;;1.50;;
9445;SDS011;4761;49.490;10.908;2023-07-20T03:04:46;3.15;;;1.60;;
9445;SDS011;4761;49.490;10.908;2023-07-20T03:07:11;1.67;;;1.48;;
9445;SDS011;4761;49.490;10.908;2023-07-20T03:09:37;2.33;;;1.75;;
9445;SDS011;4761;49.490;10.908;2023-07-20T03:12:03;1.48;;;1.38;;
9445;SDS011;4761;49.490;10.908;2023-07-20T03:14:29;2.78;;;1.73;;
9445;SDS011;4761;49.490;10.908;2023-07-20T03:16:55;1.77;;;1.30;;
9445;SDS011;4761;49.490;10.908;2023-07-20T03:19:21;1.67;;;1.45;;
9445;SDS011;4761;49.490;10.908;2023-07-20T03:21:46;1.77;;;1.55;;
9445;SDS011;4761;49.490;10.908;2023-07-20T03:24:12;1.60;;;1.40;;
9445;SDS011;4761;49.490;10.908;2023-07-20T03:26:37;1.75;;;1.50;;
9445;SDS011;4761;49.490;10.908;2023-07-20T03:29:03;1.70;;;1.50;;
9445;SDS011;4761;49.490;10.908;2023-07-20T03:31:29;1.50;;;1.40;;
9445;SDS011;4761;49.490;10.908;2023-07-20T03:33:55;1.98;;;1.63;;
9445;SDS011;4761;49.490;10.908;2023-07-20T03:36:20;1.35;;;1.25;;
9445;SDS011;4761;49.490;10.908;2023-07-20T03:38:47;1.40;;;1.30;;
9445;SDS011;4761;49.490;10.908;2023-07-20T03:41:12;2.83;;;1.55;;
9445;SDS011;4761;49.490;10.908;2023-07-20T03:43:39;1.80;;;1.48;;
9445;SDS011;4761;49.490;10.908;2023-07-20T03:46:05;1.70;;;1.60;;
9445;SDS011;4761;49.490;10.908;2023-07-20T03:48:32;2.08;;;1.73;;
9445;SDS011;4761;49.490;10.908;2023-07-20T03:50:58;1.63;;;1.20;;
9445;SDS011;4761;49.490;10.908;2023-07-20T03:53:23;1.50;;;1.33;;
9445;SDS011;4761;49.490;10.908;2023-07-20T03:55:49;1.67;;;1.55;;
9445;SDS011;4761;49.490;10.908;2023-07-20T03:58:16;1.60;;;1.50;;
9445;SDS011;4761;49.490;10.908;2023-07-20T04:00:46;1.67;;;1.58;;
9445;SDS011;4761;49.490;10.908;2023-07-20T04:03:16;1.70;;;1.40;;
9445;SDS011;4761;49.490;10.908;2023-07-20T04:05:42;1.92;;;1.73;;
9445;SDS011;4761;49.490;10.908;2023-07-20T04:08:09;1.60;;;1.50;;
9445;SDS011;4761;49.490;10.908;2023-07-20T04:10:36;1.50;;;1.40;;
9445;SDS011;4761;49.490;10.908;2023-07-20T04:13:01;2.40;;;1.58;;
9445;SDS011;4761;49.490;10.908;2023-07-20T04:15:27;1.50;;;1.40;;
9445;SDS011;4761;49.490;10.908;2023-07-20T04:17:52;2.92;;;2.08;;
9445;SDS011;4761;49.490;10.908;2023-07-20T04:20:18;2.28;;;1.50;;
9445;SDS011;4761;49.490;10.908;2023-07-20T04:22:44;2.03;;;1.50;;
9445;SDS011;4761;49.490;10.908;2023-07-20T04:25:09;1.73;;;1.38;;
9445;SDS011;4761;49.490;10.908;2023-07-20T04:27:35;3.13;;;1.67;;
9445;SDS011;4761;49.490;10.908;2023-07-20T04:30:01;1.48;;;1.38;;
9445;SDS011;4761;49.490;10.908;2023-07-20T04:32:28;2.10;;;1.67;;
9445;SDS011;4761;49.490;10.908;2023-07-20T04:34:54;2.30;;;1.52;;
9445;SDS011;4761;49.490;10.908;2023-07-20T04:37:19;1.73;;;1.50;;
9445;SDS011;4761;49.490;10.908;2023-07-20T04:39:45;1.60;;;1.50;;
9445;SDS011;4761;49.490;10.908;2023-07-20T04:42:11;3.28;;;1.77;;
9445;SDS011;4761;49.490;10.908;2023-07-20T04:44:36;1.65;;;1.38;;
9445;SDS011;4761;49.490;10.908;2023-07-20T04:47:02;1.63;;;1.45;;
9445;SDS011;4761;49.490;10.908;2023-07-20T04:49:28;1.58;;;1.30;;
9445;SDS011;4761;49.490;10.908;2023-07-20T04:51:53;2.03;;;1.50;;
9445;SDS011;4761;49.490;10.908;2023-07-20T04:54:19;2.33;;;1.52;;
9445;SDS011;4761;49.490;10.908;2023-07-20T04:56:45;2.67;;;1.60;;
9445;SDS011;4761;49.490;10.908;2023-07-20T04:59:10;1.77;;;1.67;;
9445;SDS011;4761;49.490;10.908;2023-07-20T05:01:36;1.50;;;1.40;;
9445;SDS011;4761;49.490;10.908;2023-07-20T05:04:01;2.40;;;1.88;;
9445;SDS011;4761;49.490;10.908;2023-07-20T05:06:27;1.83;;;1.45;;
9445;SDS011;4761;49.490;10.908;2023-07-20T05:08:53;2.03;;;1.42;;
9445;SDS011;4761;49.490;10.908;2023-07-20T05:11:18;1.83;;;1.52;;
9445;SDS011;4761;49.490;10.908;2023-07-20T05:13:44;1.85;;;1.60;;
9445;SDS011;4761;49.490;10.908;2023-07-20T05:16:10;3.80;;;1.48;;
9445;SDS011;4761;49.490;10.908;2023-07-20T05:18:35;1.98;;;1.30;;
9445;SDS011;4761;49.490;10.908;2023-07-20T05:21:01;1.98;;;1.45;;
9445;SDS011;4761;49.490;10.908;2023-07-20T05:23:26;2.20;;;1.50;;
9445;SDS011;4761;49.490;10.908;2023-07-20T05:26:01;1.95;;;1.60;;
9445;SDS011;4761;49.490;10.908;2023-07-20T05:28:27;1.65;;;1.55;;
9445;SDS011;4761;49.490;10.908;2023-07-20T05:30:52;1.65;;;1.40;;
9445;SDS011;4761;49.490;10.908;2023-07-20T05:33:21;1.90;;;1.50;;
9445;SDS011;4761;49.490;10.908;2023-07-20T05:35:47;1.60;;;1.50;;
9445;SDS011;4761;49.490;10.908;2023-07-20T05:38:13;2.17;;;1.58;;
9445;SDS011;4761;49.490;10.908;2023-07-20T05:40:40;1.65;;;1.50;;
9445;SDS011;4761;49.490;10.908;2023-07-20T05:43:07;2.50;;;1.80;;
9445;SDS011;4761;49.490;10.908;2023-07-20T05:45:33;3.55;;;1.58;;
9445;SDS011;4761;49.490;10.908;2023-07-20T05:47:58;2.00;;;1.30;;
9445;SDS011;4761;49.490;10.908;2023-07-20T05:50:24;2.42;;;1.50;;
9445;SDS011;4761;49.490;10.908;2023-07-20T05:52:52;1.92;;;1.30;;
9445;SDS011;4761;49.490;10.908;2023-07-20T05:55:17;1.95;;;1.30;;
9445;SDS011;4761;49.490;10.908;2023-07-20T05:57:43;1.50;;;1.40;;
9445;SDS011;4761;49.490;10.908;2023-07-20T06:00:09;2.90;;;1.65;;
9445;SDS011;4761;49.490;10.908;2023-07-20T06:02:35;1.45;;;1.35;;
9445;SDS011;4761;49.490;10.908;2023-07-20T06:05:01;1.33;;;1.23;;
9445;SDS011;4761;49.490;10.908;2023-07-20T06:07:26;1.60;;;1.42;;
9445;SDS011;4761;49.490;10.908;2023-07-20T06:09:52;3.08;;;1.45;;
9445;SDS011;4761;49.490;10.908;2023-07-20T06:12:18;1.45;;;1.35;;
9445;SDS011;4761;49.490;10.908;2023-07-20T06:14:43;1.63;;;1.30;;
9445;SDS011;4761;49.490;10.908;2023-07-20T06:17:09;1.40;;;1.30;;
9445;SDS011;4761;49.490;10.908;2023-07-20T06:19:34;4.20;;;1.45;;
9445;SDS011;4761;49.490;10.908;2023-07-20T06:22:00;1.75;;;1.20;;
9445;SDS011;4761;49.490;10.908;2023-07-20T06:24:26;1.80;;;1.30;;
9445;SDS011;4761;49.490;10.908;2023-07-20T06:26:51;1.40;;;1.13;;
9445;SDS011;4761;49.490;10.908;2023-07-20T06:29:17;1.55;;;1.20;;
9445;SDS011;4761;49.490;10.908;2023-07-20T06:31:42;1.50;;;1.17;;
9445;SDS011;4761;49.490;10.908;2023-07-20T06:34:08;1.10;;;1.00;;
9445;SDS011;4761;49.490;10.908;2023-07-20T06:36:33;2.00;;;1.20;;
9445;SDS011;4761;49.490;10.908;2023-07-20T06:39:00;1.25;;;1.15;;
9445;SDS011;4761;49.490;10.908;2023-07-20T06:41:25;1.30;;;1.20;;
9445;SDS011;4761;49.490;10.908;2023-07-20T06:43:51;1.20;;;1.10;;
9445;SDS011;4761;49.490;10.908;2023-07-20T06:46:17;1.30;;;1.20;;
9445;SDS011;4761;49.490;10.908;2023-07-20T06:48:43;1.65;;;1.17;;
9445;SDS011;4761;49.490;10.908;2023-07-20T06:51:08;1.58;;;1.30;;
9445;SDS011;4761;49.490;10.908;2023-07-20T06:53:34;1.58;;;1.25;;
9445;SDS011;4761;49.490;10.908;2023-07-20T06:55:59;1.15;;;1.05;;
9445;SDS011;4761;49.490;10.908;2023-07-20T06:58:25;1.42;;;1.33;;
9445;SDS011;4761;49.490;10.908;2023-07-20T07:00:51;1.25;;;1.10;;
9445;SDS011;4761;49.490;10.908;2023-07-20T07:03:16;2.42;;;1.17;;
9445;SDS011;4761;49.490;10.908;2023-07-20T07:05:43;1.33;;;1.23;;
9445;SDS011;4761;49.490;10.908;2023-07-20T07:08:10;1.90;;;1.40;;
9445;SDS011;4761;49.490;10.908;2023-07-20T07:10:35;1.23;;;1.13;;
9445;SDS011;4761;49.490;10.908;2023-07-20T07:13:01;1.27;;;1.15;;
9445;SDS011;4761;49.490;10.908;2023-07-20T07:15:27;1.40;;;1.17;;
9445;SDS011;4761;49.490;10.908;2023-07-20T07:17:53;0.93;;;0.93;;
9445;SDS011;4761;49.490;10.908;2023-07-20T07:20:19;1.17;;;1.08;;
9445;SDS011;4761;49.490;10.908;2023-07-20T07:22:45;1.10;;;1.10;;
9445;SDS011;4761;49.490;10.908;2023-07-20T07:25:11;1.10;;;1.00;;
9445;SDS011;4761;49.490;10.908;2023-07-20T07:27:37;1.23;;;1.10;;
9445;SDS011;4761;49.490;10.908;2023-07-20T07:30:03;1.55;;;1.20;;
9445;SDS011;4761;49.490;10.908;2023-07-20T07:32:30;1.17;;;1.10;;
9445;SDS011;4761;49.490;10.908;2023-07-20T07:34:56;1.58;;;1.10;;
9445;SDS011;4761;49.490;10.908;2023-07-20T07:37:23;1.23;;;1.10;;
9445;SDS011;4761;49.490;10.908;2023-07-20T07:39:49;1.20;;;1.10;;
9445;SDS011;4761;49.490;10.908;2023-07-20T07:42:14;1.05;;;0.95;;
9445;SDS011;4761;49.490;10.908;2023-07-20T07:44:40;0.98;;;0.85;;
9445;SDS011;4761;49.490;10.908;2023-07-20T07:47:05;1.10;;;1.10;;
9445;SDS011;4761;49.490;10.908;2023-07-20T07:49:31;1.15;;;1.05;;
9445;SDS011;4761;49.490;10.908;2023-07-20T07:51:57;1.10;;;1.00;;
9445;SDS011;4761;49.490;10.908;2023-07-20T07:54:22;0.95;;;0.95;;
9445;SDS011;4761;49.490;10.908;2023-07-20T07:56:48;0.90;;;0.90;;
9445;SDS011;4761;49.490;10.908;2023-07-20T07:59:13;1.23;;;1.13;;
9445;SDS011;4761;49.490;10.908;2023-07-20T08:01:39;1.10;;;1.00;;
9445;SDS011;4761;49.490;10.908;2023-07-20T08:04:04;1.38;;;1.27;;
9445;SDS011;4761;49.490;10.908;2023-07-20T08:06:30;2.22;;;1.25;;
9445;SDS011;4761;49.490;10.908;2023-07-20T08:08:56;0.82;;;0.82;;
9445;SDS011;4761;49.490;10.908;2023-07-20T08:11:23;1.48;;;1.10;;
9445;SDS011;4761;49.490;10.908;2023-07-20T08:13:48;1.20;;;1.10;;
9445;SDS011;4761;49.490;10.908;2023-07-20T08:16:14;1.27;;;1.17;;
9445;SDS011;4761;49.490;10.908;2023-07-20T08:18:39;1.10;;;1.00;;
9445;SDS011;4761;49.490;10.908;2023-07-20T08:21:05;1.20;;;1.10;;
9445;SDS011;4761;49.490;10.908;2023-07-20T08:23:30;0.80;;;0.80;;
9445;SDS011;4761;49.490;10.908;2023-07-20T08:25:56;1.10;;;1.00;;
9445;SDS011;4761;49.490;10.908;2023-07-20T08:28:22;1.20;;;1.10;;
9445;SDS011;4761;49.490;10.908;2023-07-20T08:30:48;1.00;;;1.00;;
9445;SDS011;4761;49.490;10.908;2023-07-20T08:33:15;1.08;;;0.98;;
9445;SDS011;4761;49.490;10.908;2023-07-20T08:35:44;1.10;;;1.00;;
9445;SDS011;4761;49.490;10.908;2023-07-20T08:38:09;1.52;;;1.20;;
9445;SDS011;4761;49.490;10.908;2023-07-20T08:41:08;1.13;;;1.00;;
9445;SDS011;4761;49.490;10.908;2023-07-20T08:43:27;0.90;;;0.90;;
9445;SDS011;4761;49.490;10.908;2023-07-20T08:45:56;1.10;;;1.00;;
9445;SDS011;4761;49.490;10.908;2023-07-20T08:48:22;1.30;;;1.20;;
9445;SDS011;4761;49.490;10.908;2023-07-20T08:50:49;1.17;;;1.05;;
9445;SDS011;4761;49.490;10.908;2023-07-20T08:53:16;1.13;;;1.02;;
9445;SDS011;4761;49.490;10.908;2023-07-20T08:55:43;0.82;;;0.82;;
9445;SDS011;4761;49.490;10.908;2023-07-20T08:58:12;1.23;;;1.10;;
9445;SDS011;4761;49.490;10.908;2023-07-20T09:00:39;1.15;;;1.08;;
9445;SDS011;4761;49.490;10.908;2023-07-20T09:03:06;1.05;;;1.05;;
9445;SDS011;4761;49.490;10.908;2023-07-20T09:05:33;1.42;;;1.05;;
9445;SDS011;4761;49.490;10.908;2023-07-20T09:08:00;0.95;;;0.95;;
9445;SDS011;4761;49.490;10.908;2023-07-20T09:10:28;1.20;;;1.02;;
9445;SDS011;4761;49.490;10.908;2023-07-20T09:12:54;1.40;;;1.17;;
9445;SDS011;4761;49.490;10.908;2023-07-20T09:15:22;1.10;;;1.00;;
9445;SDS011;4761;49.490;10.908;2023-07-20T09:17:48;1.20;;;1.10;;
9445;SDS011;4761;49.490;10.908;2023-07-20T09:20:16;1.30;;;1.20;;
9445;SDS011;4761;49.490;10.908;2023-07-20T09:22:42;1.02;;;0.93;;
9445;SDS011;4761;49.490;10.908;2023-07-20T09:27:42;1.15;;;1.02;;
9445;SDS011;4761;49.490;10.908;2023-07-20T09:30:08;1.17;;;1.08;;
9445;SDS011;4761;49.490;10.908;2023-07-20T09:32:38;1.20;;;1.10;;
9445;SDS011;4761;49.490;10.908;2023-07-20T09:35:14;1.05;;;1.00;;
9445;SDS011;4761;49.490;10.908;2023-07-20T09:37:45;1.13;;;1.02;;
9445;SDS011;4761;49.490;10.908;2023-07-20T09:40:14;0.90;;;0.90;;
9445;SDS011;4761;49.490;10.908;2023-07-20T09:42:41;1.20;;;1.10;;
9445;SDS011;4761;49.490;10.908;2023-07-20T09:45:07;1.00;;;0.90;;
9445;SDS011;4761;49.490;10.908;2023-07-20T09:47:35;1.45;;;1.10;;
9445;SDS011;4761;49.490;10.908;2023-07-20T09:50:02;1.00;;;0.90;;
9445;SDS011;4761;49.490;10.908;2023-07-20T09:52:28;1.10;;;1.00;;
9445;SDS011;4761;49.490;10.908;2023-07-20T09:54:54;1.98;;;1.00;;
9445;SDS011;4761;49.490;10.908;2023-07-20T09:57:20;1.00;;;1.00;;
9445;SDS011;4761;49.490;10.908;2023-07-20T09:59:46;1.20;;;1.10;;
9445;SDS011;4761;49.490;10.908;2023-07-20T10:02:22;1.30;;;1.20;;
9445;SDS011;4761;49.490;10.908;2023-07-20T10:04:54;1.92;;;1.15;;
9445;SDS011;4761;49.490;10.908;2023-07-20T10:07:22;1.15;;;1.02;;
9445;SDS011;4761;49.490;10.908;2023-07-20T10:09:51;1.13;;;1.02;;
9445;SDS011;4761;49.490;10.908;2023-07-20T10:12:19;1.40;;;1.30;;
9445;SDS011;4761;49.490;10.908;2023-07-20T10:15:10;1.13;;;1.02;;
9445;SDS011;4761;49.490;10.908;2023-07-20T10:17:40;0.90;;;0.90;;
9445;SDS011;4761;49.490;10.908;2023-07-20T10:20:14;1.00;;;1.00;;
9445;SDS011;4761;49.490;10.908;2023-07-20T10:22:44;1.20;;;1.10;;
9445;SDS011;4761;49.490;10.908;2023-07-20T10:25:11;0.88;;;0.80;;
9445;SDS011;4761;49.490;10.908;2023-07-20T10:27:38;1.13;;;1.02;;
9445;SDS011;4761;49.490;10.908;2023-07-20T10:30:05;1.25;;;1.00;;
9445;SDS011;4761;49.490;10.908;2023-07-20T10:32:31;1.20;;;1.10;;
9445;SDS011;4761;49.490;10.908;2023-07-20T10:34:58;1.00;;;0.90;;
9445;SDS011;4761;49.490;10.908;2023-07-20T10:40:27;1.20;;;1.10;;
9445;SDS011;4761;49.490;10.908;2023-07-20T10:42:59;0.88;;;0.88;;
9445;SDS011;4761;49.490;10.908;2023-07-20T10:48:21;1.00;;;0.90;;
9445;SDS011;4761;49.490;10.908;2023-07-20T10:53:41;0.80;;;0.80;;
9445;SDS011;4761;49.490;10.908;2023-07-20T10:56:14;1.17;;;0.93;;
9445;SDS011;4761;49.490;10.908;2023-07-20T10:58:43;0.90;;;0.90;;
9445;SDS011;4761;49.490;10.908;2023-07-20T11:01:11;1.13;;;1.00;;
9445;SDS011;4761;49.490;10.908;2023-07-20T11:03:39;0.70;;;0.70;;
9445;SDS011;4761;49.490;10.908;2023-07-20T11:08:50;1.13;;;1.10;;
9445;SDS011;4761;49.490;10.908;2023-07-20T11:11:21;1.00;;;1.00;;
9445;SDS011;4761;49.490;10.908;2023-07-20T11:13:58;0.90;;;0.90;;
9445;SDS011;4761;49.490;10.908;2023-07-20T11:16:38;0.80;;;0.80;;
9445;SDS011;4761;49.490;10.908;2023-07-20T11:19:05;0.90;;;0.90;;
9445;SDS011;4761;49.490;10.908;2023-07-20T11:21:40;0.80;;;0.80;;
9445;SDS011;4761;49.490;10.908;2023-07-20T11:24:06;0.80;;;0.80;;
9445;SDS011;4761;49.490;10.908;2023-07-20T11:26:44;0.90;;;0.90;;
9445;SDS011;4761;49.490;10.908;2023-07-20T11:29:27;0.75;;;0.75;;
9445;SDS011;4761;49.490;10.908;2023-07-20T11:31:53;0.95;;;0.95;;
9445;SDS011;4761;49.490;10.908;2023-07-20T11:34:21;0.82;;;0.82;;
9445;SDS011;4761;49.490;10.908;2023-07-20T11:36:47;0.90;;;0.90;;
9445;SDS011;4761;49.490;10.908;2023-07-20T11:39:19;0.80;;;0.80;;
9445;SDS011;4761;49.490;10.908;2023-07-20T11:41:47;0.80;;;0.80;;
9445;SDS011;4761;49.490;10.908;2023-07-20T11:44:15;0.73;;;0.73;;
9445;SDS011;4761;49.490;10.908;2023-07-20T11:46:44;1.08;;;0.93;;
9445;SDS011;4761;49.490;10.908;2023-07-20T11:49:10;0.88;;;0.80;;
9445;SDS011;4761;49.490;10.908;2023-07-20T11:51:37;0.80;;;0.80;;
9445;SDS011;4761;49.490;10.908;2023-07-20T11:54:05;0.85;;;0.85;;
9445;SDS011;4761;49.490;10.908;2023-07-20T11:56:32;0.88;;;0.88;;
9445;SDS011;4761;49.490;10.908;2023-07-20T11:58:58;0.90;;;0.70;;
9445;SDS011;4761;49.490;10.908;2023-07-20T12:01:26;0.90;;;0.90;;
9445;SDS011;4761;49.490;10.908;2023-07-20T12:04:00;0.82;;;0.82;;
9445;SDS011;4761;49.490;10.908;2023-07-20T12:06:29;0.80;;;0.80;;
9445;SDS011;4761;49.490;10.908;2023-07-20T12:08:56;0.73;;;0.73;;
9445;SDS011;4761;49.490;10.908;2023-07-20T12:11:35;0.73;;;0.70;;
9445;SDS011;4761;49.490;10.908;2023-07-20T12:14:03;1.05;;;0.90;;
9445;SDS011;4761;49.490;10.908;2023-07-20T12:16:29;0.88;;;0.88;;
9445;SDS011;4761;49.490;10.908;2023-07-20T12:18:59;0.80;;;0.80;;
9445;SDS011;4761;49.490;10.908;2023-07-20T12:21:29;0.80;;;0.80;;
9445;SDS011;4761;49.490;10.908;2023-07-20T12:23:56;0.80;;;0.80;;
9445;SDS011;4761;49.490;10.908;2023-07-20T12:26:23;0.90;;;0.90;;
9445;SDS011;4761;49.490;10.908;2023-07-20T12:28:50;0.85;;;0.85;;
9445;SDS011;4761;49.490;10.908;2023-07-20T12:31:16;0.70;;;0.70;;
9445;SDS011;4761;49.490;10.908;2023-07-20T12:33:42;0.80;;;0.80;;
9445;SDS011;4761;49.490;10.908;2023-07-20T12:36:08;0.90;;;0.90;;
9445;SDS011;4761;49.490;10.908;2023-07-20T12:38:34;1.25;;;0.90;;
9445;SDS011;4761;49.490;10.908;2023-07-20T12:41:00;1.00;;;0.93;;
9445;SDS011;4761;49.490;10.908;2023-07-20T12:43:26;1.02;;;0.90;;
9445;SDS011;4761;49.490;10.908;2023-07-20T12:45:53;0.95;;;0.90;;
9445;SDS011;4761;49.490;10.908;2023-07-20T12:48:18;0.80;;;0.80;;
9445;SDS011;4761;49.490;10.908;2023-07-20T12:50:44;0.85;;;0.85;;
9445;SDS011;4761;49.490;10.908;2023-07-20T12:53:09;0.75;;;0.73;;
9445;SDS011;4761;49.490;10.908;2023-07-20T12:55:35;0.80;;;0.80;;
9445;SDS011;4761;49.490;10.908;2023-07-20T12:58:02;0.80;;;0.80;;
9445;SDS011;4761;49.490;10.908;2023-07-20T13:00:28;0.77;;;0.77;;
9445;SDS011;4761;49.490;10.908;2023-07-20T13:02:53;0.80;;;0.80;;
9445;SDS011;4761;49.490;10.908;2023-07-20T13:05:19;0.90;;;0.90;;
9445;SDS011;4761;49.490;10.908;2023-07-20T13:07:44;0.95;;;0.85;;
9445;SDS011;4761;49.490;10.908;2023-07-20T13:10:11;0.68;;;0.68;;
9445;SDS011;4761;49.490;10.908;2023-07-20T13:12:37;0.70;;;0.70;;
9445;SDS011;4761;49.490;10.908;2023-07-20T13:15:04;1.05;;;0.77;;
9445;SDS011;4761;49.490;10.908;2023-07-20T13:17:31;0.82;;;0.82;;
9445;SDS011;4761;49.490;10.908;2023-07-20T13:19:58;0.75;;;0.75;;
9445;SDS011;4761;49.490;10.908;2023-07-20T13:22:23;0.88;;;0.80;;
9445;SDS011;4761;49.490;10.908;2023-07-20T13:24:49;0.70;;;0.70;;
9445;SDS011;4761;49.490;10.908;2023-07-20T13:27:15;0.90;;;0.90;;
9445;SDS011;4761;49.490;10.908;2023-07-20T13:29:42;1.10;;;0.70;;
9445;SDS011;4761;49.490;10.908;2023-07-20T13:32:07;1.17;;;0.70;;
9445;SDS011;4761;49.490;10.908;2023-07-20T13:34:33;0.90;;;0.90;;
9445;SDS011;4761;49.490;10.908;2023-07-20T13:36:59;1.10;;;0.80;;
9445;SDS011;4761;49.490;10.908;2023-07-20T13:39:25;0.90;;;0.80;;
9445;SDS011;4761;49.490;10.908;2023-07-20T13:41:52;1.15;;;0.80;;
9445;SDS011;4761;49.490;10.908;2023-07-20T13:44:19;0.98;;;0.80;;
9445;SDS011;4761;49.490;10.908;2023-07-20T13:46:45;1.77;;;0.90;;
9445;SDS011;4761;49.490;10.908;2023-07-20T13:49:14;0.70;;;0.70;;
9445;SDS011;4761;49.490;10.908;2023-07-20T13:51:41;0.90;;;0.90;;
9445;SDS011;4761;49.490;10.908;2023-07-20T13:54:07;0.70;;;0.70;;
9445;SDS011;4761;49.490;10.908;2023-07-20T13:56:32;0.73;;;0.70;;
9445;SDS011;4761;49.490;10.908;2023-07-20T13:58:58;1.08;;;0.75;;
9445;SDS011;4761;49.490;10.908;2023-07-20T14:01:23;0.77;;;0.77;;
9445;SDS011;4761;49.490;10.908;2023-07-20T14:03:50;1.13;;;0.73;;
9445;SDS011;4761;49.490;10.908;2023-07-20T14:06:16;0.70;;;0.70;;
9445;SDS011;4761;49.490;10.908;2023-07-20T14:08:42;0.68;;;0.68;;
9445;SDS011;4761;49.490;10.908;2023-07-20T14:11:11;0.93;;;0.70;;
9445;SDS011;4761;49.490;10.908;2023-07-20T14:13:37;0.93;;;0.93;;
9445;SDS011;4761;49.490;10.908;2023-07-20T14:16:02;0.88;;;0.80;;
9445;SDS011;4761;49.490;10.908;2023-07-20T14:18:28;0.77;;;0.77;;
9445;SDS011;4761;49.490;10.908;2023-07-20T14:20:54;0.98;;;0.85;;
9445;SDS011;4761;49.490;10.908;2023-07-20T14:23:19;1.00;;;0.90;;
9445;SDS011;4761;49.490;10.908;2023-07-20T14:25:45;0.88;;;0.80;;
9445;SDS011;4761;49.490;10.908;2023-07-20T14:28:10;0.80;;;0.77;;
9445;SDS011;4761;49.490;10.908;2023-07-20T14:30:37;0.80;;;0.80;;
9445;SDS011;4761;49.490;10.908;2023-07-20T14:33:02;1.00;;;0.80;;
9445;SDS011;4761;49.490;10.908;2023-07-20T14:35:28;0.70;;;0.70;;
9445;SDS011;4761;49.490;10.908;2023-07-20T14:37:53;0.70;;;0.70;;
9445;SDS011;4761;49.490;10.908;2023-07-20T14:40:19;0.77;;;0.77;;
9445;SDS011;4761;49.490;10.908;2023-07-20T14:42:44;0.80;;;0.80;;
9445;SDS011;4761;49.490;10.908;2023-07-20T14:45:10;0.73;;;0.73;;
9445;SDS011;4761;49.490;10.908;2023-07-20T14:47:35;0.93;;;0.77;;
9445;SDS011;4761;49.490;10.908;2023-07-20T14:50:01;1.05;;;0.90;;
9445;SDS011;4761;49.490;10.908;2023-07-20T14:52:27;0.88;;;0.80;;
9445;SDS011;4761;49.490;10.908;2023-07-20T14:54:53;0.82;;;0.82;;
9445;SDS011;4761;49.490;10.908;2023-07-20T14:57:19;0.75;;;0.75;;
9445;SDS011;4761;49.490;10.908;2023-07-20T14:59:46;0.80;;;0.80;;
9445;SDS011;4761;49.490;10.908;2023-07-20T15:02:12;1.70;;;0.80;;
9445;SDS011;4761;49.490;10.908;2023-07-20T15:04:45;0.75;;;0.75;;
9445;SDS011;4761;49.490;10.908;2023-07-20T15:07:18;0.70;;;0.70;;
9445;SDS011;4761;49.490;10.908;2023-07-20T15:09:47;0.70;;;0.70;;
9445;SDS011;4761;49.490;10.908;2023-07-20T15:12:12;1.15;;;0.80;;
9445;SDS011;4761;49.490;10.908;2023-07-20T15:14:39;2.17;;;0.90;;
9445;SDS011;4761;49.490;10.908;2023-07-20T15:17:06;1.08;;;0.90;;
9445;SDS011;4761;49.490;10.908;2023-07-20T15:19:31;0.90;;;0.90;;
9445;SDS011;4761;49.490;10.908;2023-07-20T15:21:59;0.82;;;0.80;;